createdAt,value
2023-03-27T00:00:08.765Z,4.24
2023-03-27T00:02:37.867Z,4.25
2023-03-27T00:05:06.437Z,4.23
2023-03-27T00:07:35.993Z,4.21
2023-03-27T00:10:04.021Z,4.20
2023-03-27T00:12:31.759Z,4.16
2023-03-27T00:15:00.902Z,4.13
2023-03-27T00:17:28.785Z,4.12
2023-03-27T00:19:56.537Z,4.10
2023-03-27T00:22:24.351Z,4.10
2023-03-27T00:24:53.600Z,4.08
2023-03-27T00:27:21.383Z,4.10
2023-03-27T00:29:49.134Z,4.09
2023-03-27T00:32:16.960Z,4.10
2023-03-27T00:34:44.748Z,4.10
2023-03-27T00:37:12.927Z,4.11
2023-03-27T00:39:40.751Z,4.11
2023-03-27T00:42:14.400Z,4.12
2023-03-27T00:44:42.485Z,4.13
2023-03-27T00:47:12.788Z,4.12
2023-03-27T00:49:40.726Z,4.14
2023-03-27T00:52:08.824Z,4.16
2023-03-27T00:54:40.172Z,4.15
2023-03-27T00:57:14.182Z,4.16
2023-03-27T00:59:44.887Z,4.13
2023-03-27T01:02:14.588Z,4.13
2023-03-27T01:04:44.123Z,4.12
2023-03-27T01:07:12.919Z,4.10
2023-03-27T01:09:41.078Z,4.06
2023-03-27T01:12:23.678Z,4.03
2023-03-27T01:15:06.640Z,3.99
2023-03-27T01:17:47.214Z,3.94
2023-03-27T01:20:42.347Z,3.89
2023-03-27T01:23:35.928Z,3.87
2023-03-27T01:26:37.178Z,3.87
2023-03-27T01:29:12.467Z,3.87
2023-03-27T01:32:07.364Z,3.87
2023-03-27T01:35:03.287Z,3.88
2023-03-27T01:38:01.444Z,3.89
2023-03-27T01:40:35.129Z,3.89
2023-03-27T01:43:08.167Z,3.89
2023-03-27T01:45:43.711Z,3.87
2023-03-27T01:48:16.887Z,3.86
2023-03-27T01:50:49.363Z,3.86
2023-03-27T01:53:22.054Z,3.84
2023-03-27T01:55:58.175Z,3.87
2023-03-27T01:58:33.166Z,3.87
2023-03-27T02:01:02.888Z,3.89
2023-03-27T02:03:35.796Z,3.89
2023-03-27T02:06:09.607Z,3.88
2023-03-27T02:08:43.607Z,3.89
2023-03-27T02:11:19.495Z,3.90
2023-03-27T02:13:51.673Z,3.90
2023-03-27T02:16:23.808Z,3.85
2023-03-27T02:18:56.777Z,3.84
2023-03-27T02:21:24.922Z,3.80
2023-03-27T02:23:53.544Z,3.77
2023-03-27T02:26:23.237Z,3.71
2023-03-27T02:29:03.308Z,3.67
2023-03-27T02:31:42.435Z,3.62
2023-03-27T02:34:38.267Z,3.56
2023-03-27T02:37:19.193Z,3.52
2023-03-27T02:40:31.973Z,3.47
2023-03-27T02:43:35.336Z,3.40
2023-03-27T02:46:10.670Z,3.32
2023-03-27T02:48:43.146Z,3.27
2023-03-27T02:51:16.223Z,3.22
2023-03-27T02:53:48.772Z,3.14
2023-03-27T02:56:18.604Z,3.08
2023-03-27T02:58:51.885Z,3.06
2023-03-27T03:01:33.462Z,3.02
2023-03-27T03:04:16.608Z,3.00
2023-03-27T03:07:04.256Z,2.94
2023-03-27T03:09:32.669Z,2.88
2023-03-27T03:12:01.385Z,2.88
2023-03-27T03:14:44.011Z,2.89
2023-03-27T03:17:12.627Z,2.95
2023-03-27T03:19:40.794Z,2.94
2023-03-27T03:22:09.496Z,2.93
2023-03-27T03:24:41.823Z,2.90
2023-03-27T03:27:12.745Z,2.89
2023-03-27T03:29:56.742Z,2.87
2023-03-27T03:32:28.212Z,2.85
2023-03-27T03:34:57.066Z,2.83
2023-03-27T03:37:28.433Z,2.79
2023-03-27T03:39:57.289Z,2.78
2023-03-27T03:42:25.772Z,2.80
2023-03-27T03:44:55.728Z,2.79
2023-03-27T03:47:24.187Z,2.75
2023-03-27T03:49:51.942Z,2.70
2023-03-27T03:52:19.781Z,2.65
2023-03-27T03:54:47.634Z,2.60
2023-03-27T03:57:15.607Z,2.56
2023-03-27T03:59:48.812Z,2.48
2023-03-27T04:02:31.757Z,2.43
2023-03-27T04:05:10.350Z,2.38
2023-03-27T04:07:40.897Z,2.33
2023-03-27T04:10:35.467Z,2.29
2023-03-27T04:13:06.677Z,2.28
2023-03-27T04:15:38.515Z,2.26
2023-03-27T04:18:35.037Z,2.24
2023-03-27T04:21:14.182Z,2.22
2023-03-27T04:23:42.586Z,2.23
2023-03-27T04:26:12.291Z,2.23
2023-03-27T04:29:00.564Z,2.25
2023-03-27T04:32:05.616Z,2.29
2023-03-27T04:34:43.502Z,2.28
2023-03-27T04:37:30.491Z,2.26
2023-03-27T04:40:17.912Z,2.24
2023-03-27T04:42:46.092Z,2.21
2023-03-27T04:45:15.178Z,2.17
2023-03-27T04:47:47.475Z,2.17
2023-03-27T04:50:17.699Z,2.11
2023-03-27T04:52:47.916Z,2.06
2023-03-27T04:55:18.317Z,2.02
2023-03-27T04:57:48.936Z,2.01
2023-03-27T05:00:19.459Z,1.97
2023-03-27T05:02:48.666Z,1.97
2023-03-27T05:05:24.907Z,2.00
2023-03-27T05:07:53.234Z,2.01
2023-03-27T05:10:24.362Z,2.01
2023-03-27T05:12:56.431Z,1.97
2023-03-27T05:15:25.801Z,1.96
2023-03-27T05:17:55.225Z,1.98
2023-03-27T05:20:28.082Z,1.98
2023-03-27T05:22:57.134Z,1.96
2023-03-27T05:25:27.189Z,1.95
2023-03-27T05:27:55.988Z,1.94
2023-03-27T05:30:27.358Z,1.94
2023-03-27T05:33:16.422Z,1.90
2023-03-27T05:35:47.179Z,1.89
2023-03-27T05:38:15.964Z,1.86
2023-03-27T05:41:09.895Z,1.84
2023-03-27T05:43:42.165Z,1.83
2023-03-27T05:46:10.165Z,1.82
2023-03-27T05:48:39.306Z,1.80
2023-03-27T05:51:10.299Z,1.80
2023-03-27T05:53:39.289Z,1.84
2023-03-27T05:56:27.712Z,1.87
2023-03-27T05:58:59.120Z,1.95
2023-03-27T06:01:28.174Z,1.98
2023-03-27T06:03:58.611Z,2.09
2023-03-27T06:06:32.997Z,2.35
2023-03-27T06:09:00.880Z,2.59
2023-03-27T06:11:29.771Z,2.80
2023-03-27T06:13:58.948Z,2.98
2023-03-27T06:16:41.070Z,3.02
2023-03-27T06:19:38.900Z,3.05
2023-03-27T06:22:09.047Z,3.06
2023-03-27T06:24:38.515Z,2.92
2023-03-27T06:27:06.508Z,2.98
2023-03-27T06:29:37.307Z,2.97
2023-03-27T06:32:05.346Z,3.65
2023-03-27T06:34:38.677Z,4.30
2023-03-27T06:37:37.217Z,4.89
2023-03-27T06:40:09.676Z,4.99
2023-03-27T06:42:39.671Z,5.25
2023-03-27T06:45:26.298Z,5.43
2023-03-27T06:48:21.475Z,6.02
2023-03-27T06:50:54.031Z,6.19
2023-03-27T06:53:27.961Z,6.16
2023-03-27T06:55:57.364Z,6.48
2023-03-27T06:58:27.426Z,6.86
2023-03-27T07:00:56.014Z,6.98
2023-03-27T07:03:23.991Z,7.40
2023-03-27T07:06:10.968Z,7.63
2023-03-27T07:08:49.298Z,7.96
2023-03-27T07:11:18.322Z,8.20
2023-03-27T07:13:57.353Z,8.58
2023-03-27T07:16:28.018Z,8.88
2023-03-27T07:18:58.869Z,9.09
2023-03-27T07:21:28.474Z,9.37
2023-03-27T07:24:01.021Z,9.55
2023-03-27T07:26:34.417Z,9.67
2023-03-27T07:29:14.554Z,10.03
2023-03-27T07:31:57.714Z,10.46
2023-03-27T07:34:37.443Z,10.87
2023-03-27T07:37:17.003Z,11.27
2023-03-27T07:40:08.021Z,11.52
2023-03-27T07:42:36.793Z,11.44
2023-03-27T07:45:09.586Z,11.61
2023-03-27T07:47:37.547Z,11.55
2023-03-27T07:50:11.495Z,11.62
2023-03-27T07:52:40.869Z,11.88
2023-03-27T07:55:12.389Z,12.10
2023-03-27T07:57:59.851Z,12.24
2023-03-27T08:00:30.196Z,12.27
2023-03-27T08:03:11.483Z,12.55
2023-03-27T08:05:44.286Z,12.77
2023-03-27T08:08:14.892Z,13.27
2023-03-27T08:10:52.013Z,13.27
2023-03-27T08:13:19.913Z,13.46
2023-03-27T08:15:47.906Z,13.66
2023-03-27T08:18:24.956Z,13.75
2023-03-27T08:20:57.105Z,13.73
2023-03-27T08:23:27.146Z,13.65
2023-03-27T08:26:26.423Z,13.40
2023-03-27T08:28:58.203Z,13.41
2023-03-27T08:31:30.842Z,13.77
2023-03-27T08:34:04.395Z,13.69
2023-03-27T08:36:46.825Z,13.83
2023-03-27T08:39:15.837Z,13.72
2023-03-27T08:42:01.261Z,13.72
2023-03-27T08:44:35.070Z,13.99
2023-03-27T08:47:15.992Z,13.97
2023-03-27T08:49:54.393Z,14.27
2023-03-27T08:52:43.222Z,14.57
2023-03-27T08:55:24.604Z,14.39
2023-03-27T08:58:02.775Z,14.19
2023-03-27T09:00:39.500Z,13.75
2023-03-27T09:03:25.734Z,13.16
2023-03-27T09:05:57.418Z,12.93
2023-03-27T09:08:40.633Z,13.18
2023-03-27T09:11:16.785Z,13.54
2023-03-27T09:13:55.146Z,13.82
2023-03-27T09:16:29.310Z,13.86
2023-03-27T09:19:04.947Z,14.21
2023-03-27T09:21:41.106Z,14.21
2023-03-27T09:24:20.827Z,14.48
2023-03-27T09:27:25.510Z,13.48
2023-03-27T09:30:24.409Z,12.49
2023-03-27T09:33:03.464Z,11.82
2023-03-27T09:35:32.107Z,11.06
2023-03-27T09:38:03.797Z,10.39
2023-03-27T09:40:41.123Z,9.88
2023-03-27T09:43:13.055Z,9.41
2023-03-27T09:45:44.060Z,9.03
2023-03-27T09:48:15.398Z,8.59
2023-03-27T09:50:47.412Z,8.20
2023-03-27T09:53:39.808Z,8.51
2023-03-27T09:56:16.691Z,8.78
2023-03-27T09:58:50.097Z,9.17
2023-03-27T10:01:30.298Z,9.69
2023-03-27T10:04:14.087Z,10.11
2023-03-27T10:06:47.386Z,10.40
2023-03-27T10:09:26.442Z,10.65
2023-03-27T10:12:09.003Z,11.24
2023-03-27T10:14:41.343Z,11.60
2023-03-27T10:17:22.613Z,11.80
2023-03-27T10:20:05.371Z,12.02
2023-03-27T10:22:39.389Z,12.36
2023-03-27T10:25:17.455Z,12.59
2023-03-27T10:27:53.637Z,12.75
2023-03-27T10:30:40.510Z,13.28
2023-03-27T10:33:30.623Z,13.22
2023-03-27T10:36:12.922Z,13.38
2023-03-27T10:38:43.532Z,13.59
2023-03-27T10:41:29.457Z,13.77
2023-03-27T10:44:00.310Z,13.62
2023-03-27T10:46:30.119Z,13.72
2023-03-27T10:49:17.406Z,13.07
2023-03-27T10:51:50.512Z,12.13
2023-03-27T10:54:43.431Z,11.78
2023-03-27T10:57:15.989Z,11.62
2023-03-27T10:59:48.861Z,11.73
2023-03-27T11:02:32.472Z,12.04
2023-03-27T11:05:04.375Z,12.29
2023-03-27T11:07:38.934Z,12.99
2023-03-27T11:10:15.452Z,13.02
2023-03-27T11:12:49.453Z,12.92
2023-03-27T11:15:22.841Z,12.81
2023-03-27T11:17:58.622Z,12.80
2023-03-27T11:20:52.629Z,13.18
2023-03-27T11:23:34.912Z,13.58
2023-03-27T11:26:50.652Z,13.57
2023-03-27T11:29:28.357Z,13.80
2023-03-27T11:32:04.877Z,13.83
2023-03-27T11:35:00.469Z,13.16
2023-03-27T11:37:52.733Z,11.87
2023-03-27T11:40:26.820Z,11.21
2023-03-27T11:43:02.254Z,10.65
2023-03-27T11:45:42.693Z,10.38
2023-03-27T11:48:38.250Z,10.47
2023-03-27T11:51:20.611Z,10.66
2023-03-27T11:54:06.962Z,10.77
2023-03-27T11:56:58.297Z,11.41
2023-03-27T12:00:12.143Z,11.73
2023-03-27T12:03:12.201Z,12.22
2023-03-27T12:05:56.229Z,12.84
2023-03-27T12:08:42.667Z,13.12
2023-03-27T12:11:13.785Z,13.67
2023-03-27T12:14:18.441Z,14.04
2023-03-27T12:17:28.180Z,14.49
2023-03-27T12:20:21.954Z,14.78
2023-03-27T12:23:03.721Z,14.83
2023-03-27T12:26:00.519Z,14.39
2023-03-27T12:29:03.606Z,13.73
2023-03-27T12:32:16.418Z,13.51
2023-03-27T12:34:53.217Z,13.43
2023-03-27T12:37:27.305Z,13.02
2023-03-27T12:39:59.165Z,12.48
2023-03-27T12:42:44.570Z,12.24
2023-03-27T12:45:19.478Z,11.93
2023-03-27T12:48:17.424Z,11.93
2023-03-27T12:50:47.253Z,11.98
2023-03-27T12:53:48.735Z,11.79
2023-03-27T12:56:30.248Z,12.33
2023-03-27T12:58:58.293Z,12.81
2023-03-27T13:01:56.320Z,13.38
2023-03-27T13:04:50.950Z,13.84
2023-03-27T13:07:26.399Z,14.26
2023-03-27T13:10:19.094Z,14.56
2023-03-27T13:13:05.741Z,14.85
2023-03-27T13:15:57.694Z,15.13
2023-03-27T13:18:50.940Z,15.26
2023-03-27T13:21:29.752Z,15.39
2023-03-27T13:24:19.139Z,15.36
2023-03-27T13:26:59.682Z,15.67
2023-03-27T13:29:32.486Z,15.85
2023-03-27T13:32:07.289Z,15.33
2023-03-27T13:35:08.492Z,14.62
2023-03-27T13:37:54.431Z,14.56
2023-03-27T13:40:36.353Z,14.63
2023-03-27T13:43:21.577Z,14.16
2023-03-27T13:45:55.747Z,13.88
2023-03-27T13:49:04.710Z,13.64
2023-03-27T13:52:11.746Z,13.57
2023-03-27T13:55:20.573Z,13.78
2023-03-27T13:58:19.475Z,14.15
2023-03-27T14:01:13.505Z,14.51
2023-03-27T14:04:04.342Z,14.80
2023-03-27T14:07:16.955Z,14.87
2023-03-27T14:10:11.248Z,15.13
2023-03-27T14:12:59.178Z,15.38
2023-03-27T14:16:11.564Z,15.80
2023-03-27T14:19:06.415Z,16.05
2023-03-27T14:21:52.258Z,15.92
2023-03-27T14:24:30.440Z,16.29
2023-03-27T14:27:12.158Z,16.75
2023-03-27T14:29:41.586Z,16.51
2023-03-27T14:32:17.374Z,16.37
2023-03-27T14:34:54.216Z,16.03
2023-03-27T14:37:38.475Z,15.99
2023-03-27T14:40:24.025Z,15.68
2023-03-27T14:42:59.552Z,15.11
2023-03-27T14:45:33.334Z,15.75
2023-03-27T14:48:08.851Z,16.12
2023-03-27T14:50:46.711Z,16.93
2023-03-27T14:53:21.952Z,16.74
2023-03-27T14:56:25.797Z,16.24
2023-03-27T14:58:56.563Z,16.78
2023-03-27T15:01:29.455Z,16.77
2023-03-27T15:03:57.422Z,16.40
2023-03-27T15:06:26.435Z,15.56
2023-03-27T15:09:05.314Z,15.26
2023-03-27T15:11:56.386Z,14.65
2023-03-27T15:14:30.400Z,14.69
2023-03-27T15:17:03.009Z,14.91
2023-03-27T15:19:43.253Z,15.39
2023-03-27T15:22:18.770Z,15.27
2023-03-27T15:24:52.017Z,15.20
2023-03-27T15:27:24.290Z,15.22
2023-03-27T15:29:57.853Z,15.19
2023-03-27T15:32:32.415Z,15.26
2023-03-27T15:35:03.415Z,15.19
2023-03-27T15:37:32.946Z,15.24
2023-03-27T15:40:09.072Z,15.21
2023-03-27T15:42:47.360Z,14.98
2023-03-27T15:45:17.272Z,14.59
2023-03-27T15:47:59.982Z,14.29
2023-03-27T15:50:28.312Z,14.01
2023-03-27T15:52:58.680Z,13.93
2023-03-27T15:55:36.390Z,13.65
2023-03-27T15:58:17.208Z,13.46
2023-03-27T16:00:48.018Z,13.63
2023-03-27T16:03:21.431Z,13.84
2023-03-27T16:05:51.369Z,14.02
2023-03-27T16:08:28.645Z,13.42
2023-03-27T16:10:56.940Z,13.40
2023-03-27T16:13:33.128Z,13.51
2023-03-27T16:16:02.787Z,12.95
2023-03-27T16:18:35.062Z,12.67
2023-03-27T16:21:07.914Z,12.66
2023-03-27T16:23:35.932Z,12.63
2023-03-27T16:26:06.316Z,12.71
2023-03-27T16:28:34.588Z,12.65
2023-03-27T16:31:11.751Z,13.24
2023-03-27T16:33:42.852Z,13.69
2023-03-27T16:36:12.708Z,13.68
2023-03-27T16:38:42.401Z,13.67
2023-03-27T16:41:14.280Z,13.78
2023-03-27T16:43:42.645Z,13.86
2023-03-27T16:46:17.577Z,14.05
2023-03-27T16:48:46.780Z,13.87
2023-03-27T16:51:14.704Z,14.03
2023-03-27T16:53:42.466Z,13.60
2023-03-27T16:56:11.489Z,13.19
2023-03-27T16:58:39.394Z,12.58
2023-03-27T17:01:08.485Z,12.28
2023-03-27T17:03:37.104Z,12.00
2023-03-27T17:06:08.386Z,11.61
2023-03-27T17:08:37.293Z,11.19
2023-03-27T17:11:07.437Z,10.67
2023-03-27T17:13:35.919Z,10.50
2023-03-27T17:16:04.235Z,10.32
2023-03-27T17:18:34.865Z,10.13
2023-03-27T17:21:02.663Z,9.87
2023-03-27T17:23:32.213Z,9.86
2023-03-27T17:26:00.943Z,9.75
2023-03-27T17:28:29.162Z,9.44
2023-03-27T17:31:04.584Z,9.54
2023-03-27T17:33:33.689Z,9.32
2023-03-27T17:36:01.894Z,9.26
2023-03-27T17:38:31.823Z,9.32
2023-03-27T17:40:59.573Z,9.24
2023-03-27T17:43:27.369Z,9.26
2023-03-27T17:45:55.226Z,9.18
2023-03-27T17:48:23.037Z,9.29
2023-03-27T17:51:05.179Z,9.25
2023-03-27T17:53:38.291Z,9.22
2023-03-27T17:56:07.378Z,9.09
2023-03-27T17:58:36.960Z,8.95
2023-03-27T18:01:14.285Z,8.93
2023-03-27T18:03:42.240Z,8.88
2023-03-27T18:06:10.339Z,8.90
2023-03-27T18:08:39.451Z,8.86
2023-03-27T18:11:09.945Z,8.73
2023-03-27T18:13:38.568Z,8.66
2023-03-27T18:16:08.718Z,8.48
2023-03-27T18:18:36.753Z,8.35
2023-03-27T18:21:04.784Z,8.31
2023-03-27T18:23:34.783Z,8.03
2023-03-27T18:26:06.120Z,7.86
2023-03-27T18:28:34.334Z,7.76
2023-03-27T18:31:04.452Z,7.60
2023-03-27T18:33:32.925Z,7.56
2023-03-27T18:36:01.503Z,7.47
2023-03-27T18:38:30.018Z,7.37
2023-03-27T18:40:59.691Z,7.37
2023-03-27T18:43:29.313Z,7.37
2023-03-27T18:45:57.841Z,7.34
2023-03-27T18:48:26.581Z,7.23
2023-03-27T18:50:55.386Z,7.21
2023-03-27T18:53:23.389Z,7.13
2023-03-27T18:55:52.040Z,7.00
2023-03-27T18:58:20.700Z,7.01
2023-03-27T19:00:49.882Z,7.01
2023-03-27T19:03:20.214Z,6.94
2023-03-27T19:05:48.734Z,6.81
2023-03-27T19:08:17.689Z,6.69
2023-03-27T19:10:45.832Z,6.50
2023-03-27T19:13:25.602Z,6.23
2023-03-27T19:15:57.643Z,6.10
2023-03-27T19:18:44.108Z,5.95
2023-03-27T19:21:19.331Z,5.85
2023-03-27T19:23:53.362Z,5.74
2023-03-27T19:26:24.086Z,5.71
2023-03-27T19:28:51.857Z,5.65
2023-03-27T19:31:21.500Z,5.62
2023-03-27T19:33:49.340Z,5.63
2023-03-27T19:36:17.169Z,5.63
2023-03-27T19:38:44.963Z,5.60
2023-03-27T19:41:12.812Z,5.56
2023-03-27T19:43:40.628Z,5.53
2023-03-27T19:46:16.170Z,5.45
2023-03-27T19:48:47.334Z,5.41
2023-03-27T19:51:23.090Z,5.36
2023-03-27T19:53:52.768Z,5.28
2023-03-27T19:56:23.360Z,5.31
2023-03-27T19:58:52.218Z,5.26
2023-03-27T20:01:21.382Z,5.24
2023-03-27T20:03:50.648Z,5.19
2023-03-27T20:06:19.505Z,5.12
2023-03-27T20:08:47.447Z,5.05
2023-03-27T20:11:16.731Z,4.96
2023-03-27T20:13:56.065Z,4.92
2023-03-27T20:16:26.221Z,4.88
2023-03-27T20:19:04.379Z,4.88
2023-03-27T20:21:35.077Z,4.84
2023-03-27T20:24:06.700Z,4.86
2023-03-27T20:26:39.888Z,4.83
2023-03-27T20:29:16.183Z,4.78
2023-03-27T20:31:46.139Z,4.75
2023-03-27T20:34:19.102Z,4.75
2023-03-27T20:36:47.068Z,4.69
2023-03-27T20:39:33.483Z,4.61
2023-03-27T20:42:01.310Z,4.51
2023-03-27T20:44:35.900Z,4.48
2023-03-27T20:47:12.078Z,4.50
2023-03-27T20:49:43.873Z,4.51
2023-03-27T20:52:13.739Z,4.45
2023-03-27T20:54:41.669Z,4.41
2023-03-27T20:57:12.138Z,4.42
2023-03-27T20:59:40.118Z,4.43
2023-03-27T21:02:08.152Z,4.43
2023-03-27T21:04:36.278Z,4.42
2023-03-27T21:07:06.314Z,4.39
2023-03-27T21:09:34.074Z,4.34
2023-03-27T21:12:02.027Z,4.31
2023-03-27T21:14:29.785Z,4.27
2023-03-27T21:16:57.674Z,4.15
2023-03-27T21:19:25.541Z,4.11
2023-03-27T21:21:53.412Z,4.11
2023-03-27T21:24:22.604Z,4.02
2023-03-27T21:26:50.438Z,4.01
2023-03-27T21:29:20.791Z,3.94
2023-03-27T21:31:48.639Z,3.87
2023-03-27T21:34:16.449Z,3.78
2023-03-27T21:36:44.353Z,3.69
2023-03-27T21:39:12.163Z,3.62
2023-03-27T21:41:41.366Z,3.56
2023-03-27T21:44:09.159Z,3.54
2023-03-27T21:46:37.001Z,3.51
2023-03-27T21:49:04.902Z,3.50
2023-03-27T21:51:32.726Z,3.46
2023-03-27T21:54:00.506Z,3.43
2023-03-27T21:56:28.280Z,3.35
2023-03-27T21:58:57.583Z,3.27
2023-03-27T22:01:25.928Z,3.20
2023-03-27T22:03:53.874Z,3.14
2023-03-27T22:06:21.690Z,3.09
2023-03-27T22:08:49.458Z,3.09
2023-03-27T22:11:17.456Z,3.07
2023-03-27T22:13:46.435Z,3.05
2023-03-27T22:16:17.818Z,3.04
2023-03-27T22:18:45.705Z,3.03
2023-03-27T22:21:16.172Z,3.00
2023-03-27T22:23:44.298Z,3.00
2023-03-27T22:26:12.479Z,3.00
2023-03-27T22:28:40.340Z,2.98
2023-03-27T22:31:08.660Z,2.99
2023-03-27T22:33:38.415Z,2.97
2023-03-27T22:36:10.503Z,2.94
2023-03-27T22:38:38.982Z,2.89
2023-03-27T22:41:08.930Z,2.84
2023-03-27T22:43:37.323Z,2.79
2023-03-27T22:46:06.843Z,2.72
2023-03-27T22:48:34.961Z,2.63
2023-03-27T22:51:04.877Z,2.54
2023-03-27T22:53:33.024Z,2.48
2023-03-27T22:56:01.847Z,2.48
2023-03-27T22:58:30.502Z,2.47
2023-03-27T23:00:58.636Z,2.45
2023-03-27T23:03:27.898Z,2.42
2023-03-27T23:05:56.432Z,2.39
2023-03-27T23:08:28.142Z,2.38
2023-03-27T23:10:56.676Z,2.40
2023-03-27T23:13:24.867Z,2.37
2023-03-27T23:15:53.385Z,2.34
2023-03-27T23:18:24.497Z,2.34
2023-03-27T23:20:56.467Z,2.32
2023-03-27T23:23:26.776Z,2.29
2023-03-27T23:25:54.934Z,2.25
2023-03-27T23:28:23.041Z,2.24
2023-03-27T23:30:55.141Z,2.23
2023-03-27T23:33:25.068Z,2.21
2023-03-27T23:35:53.800Z,2.18
2023-03-27T23:38:21.871Z,2.18
2023-03-27T23:40:57.501Z,2.16
2023-03-27T23:43:26.713Z,2.15
2023-03-27T23:45:56.096Z,2.11
2023-03-27T23:48:24.359Z,2.08
2023-03-27T23:50:53.170Z,2.05
2023-03-27T23:53:21.997Z,2.05
2023-03-27T23:55:49.888Z,2.05
2023-03-27T23:58:19.373Z,2.02
